createdAt,value
2023-03-08T00:00:46.317Z,97774.47
2023-03-08T00:03:15.692Z,97774.06
2023-03-08T00:05:45.057Z,97769.50
2023-03-08T00:08:13.195Z,97777.59
2023-03-08T00:10:41.248Z,97783.81
2023-03-08T00:13:09.301Z,97769.50
2023-03-08T00:15:38.495Z,97761.25
2023-03-08T00:18:06.544Z,97777.81
2023-03-08T00:20:34.666Z,97768.06
2023-03-08T00:23:04.103Z,97768.28
2023-03-08T00:25:32.033Z,97754.41
2023-03-08T00:27:59.983Z,97760.22
2023-03-08T00:30:30.441Z,97771.78
2023-03-08T00:32:58.422Z,97757.28
2023-03-08T00:35:26.577Z,97764.13
2023-03-08T00:37:54.553Z,97769.31
2023-03-08T00:40:24.008Z,97765.34
2023-03-08T00:42:52.039Z,97758.53
2023-03-08T00:45:20.099Z,97770.34
2023-03-08T00:47:47.998Z,97763.28
2023-03-08T00:50:16.180Z,97771.78
2023-03-08T00:52:44.189Z,97753.94
2023-03-08T00:55:14.468Z,97767.22
2023-03-08T00:57:44.065Z,97769.91
2023-03-08T01:00:13.804Z,97757.47
2023-03-08T01:02:42.100Z,97760.16
2023-03-08T01:05:10.811Z,97768.06
2023-03-08T01:07:38.997Z,97760.78
2023-03-08T01:10:09.278Z,97774.06
2023-03-08T01:12:38.631Z,97777.59
2023-03-08T01:15:09.348Z,97775.91
2023-03-08T01:17:37.445Z,97776.94
2023-03-08T01:20:07.322Z,97775.31
2023-03-08T01:22:35.448Z,97769.31
2023-03-08T01:25:03.413Z,97768.06
2023-03-08T01:27:31.468Z,97779.44
2023-03-08T01:29:59.561Z,97770.75
2023-03-08T01:32:29.167Z,97779.69
2023-03-08T01:35:02.049Z,97775.53
2023-03-08T01:37:30.143Z,97768.72
2023-03-08T01:39:58.391Z,97775.97
2023-03-08T01:42:26.916Z,97778.03
2023-03-08T01:44:57.226Z,97784.47
2023-03-08T01:47:29.279Z,97785.72
2023-03-08T01:50:17.502Z,97778.06
2023-03-08T01:52:50.711Z,97770.63
2023-03-08T01:55:20.760Z,97774.53
2023-03-08T01:57:53.463Z,97772.88
2023-03-08T02:00:23.945Z,97772.28
2023-03-08T02:02:58.611Z,97769.41
2023-03-08T02:05:28.341Z,97764.63
2023-03-08T02:08:02.274Z,97775.38
2023-03-08T02:10:35.024Z,97780.97
2023-03-08T02:13:04.290Z,97770.44
2023-03-08T02:15:32.812Z,97775.81
2023-03-08T02:18:02.293Z,97776.63
2023-03-08T02:20:32.744Z,97744.34
2023-03-08T02:23:13.933Z,97765.00
2023-03-08T02:25:50.611Z,97780.56
2023-03-08T02:28:19.017Z,97777.03
2023-03-08T02:30:47.310Z,97764.41
2023-03-08T02:33:16.755Z,97768.94
2023-03-08T02:35:45.603Z,97773.50
2023-03-08T02:38:17.406Z,97784.28
2023-03-08T02:40:45.523Z,97774.53
2023-03-08T02:43:13.639Z,97769.97
2023-03-08T02:45:41.625Z,97771.84
2023-03-08T02:48:10.358Z,97771.22
2023-03-08T02:50:38.392Z,97782.59
2023-03-08T02:53:07.251Z,97784.50
2023-03-08T02:55:37.237Z,97775.59
2023-03-08T02:58:11.232Z,97772.28
2023-03-08T03:00:40.368Z,97768.16
2023-03-08T03:03:08.511Z,97778.47
2023-03-08T03:05:36.574Z,97780.97
2023-03-08T03:08:07.994Z,97780.75
2023-03-08T03:10:41.282Z,97787.81
2023-03-08T03:13:09.343Z,97803.34
2023-03-08T03:15:39.650Z,97672.78
2023-03-08T03:18:08.184Z,97785.31
2023-03-08T03:20:36.165Z,97802.50
2023-03-08T03:23:04.209Z,97805.19
2023-03-08T03:26:07.276Z,97790.06
2023-03-08T03:28:36.041Z,97792.75
2023-03-08T03:31:09.011Z,97793.38
2023-03-08T03:33:37.563Z,97795.25
2023-03-08T03:36:06.430Z,97785.09
2023-03-08T03:38:36.226Z,97793.38
2023-03-08T03:41:07.985Z,97793.19
2023-03-08T03:43:38.082Z,97792.56
2023-03-08T03:46:13.059Z,97797.13
2023-03-08T03:48:42.567Z,97782.00
2023-03-08T03:51:13.138Z,97777.06
2023-03-08T03:53:46.119Z,97785.94
2023-03-08T03:56:19.147Z,97792.75
2023-03-08T03:58:48.028Z,97787.00
2023-03-08T04:01:22.114Z,97797.53
2023-03-08T04:03:50.646Z,97776.84
2023-03-08T04:06:22.391Z,97782.22
2023-03-08T04:08:54.340Z,97809.16
2023-03-08T04:11:25.760Z,97801.69
2023-03-08T04:13:54.477Z,97808.09
2023-03-08T04:16:29.248Z,97816.16
2023-03-08T04:19:01.755Z,97795.06
2023-03-08T04:21:32.078Z,97827.78
2023-03-08T04:24:00.918Z,97809.97
2023-03-08T04:26:31.227Z,97828.59
2023-03-08T04:28:59.244Z,97783.28
2023-03-08T04:31:30.370Z,97821.13
2023-03-08T04:34:02.763Z,97822.38
2023-03-08T04:36:31.518Z,97825.69
2023-03-08T04:39:00.963Z,97830.06
2023-03-08T04:41:31.578Z,97819.09
2023-03-08T04:44:11.826Z,97798.19
2023-03-08T04:46:44.825Z,97821.97
2023-03-08T04:49:17.548Z,97827.34
2023-03-08T04:51:51.508Z,97811.66
2023-03-08T04:54:19.703Z,97819.28
2023-03-08T04:56:55.088Z,97823.63
2023-03-08T04:59:25.839Z,97833.56
2023-03-08T05:01:56.664Z,97838.13
2023-03-08T05:04:25.651Z,97823.63
2023-03-08T05:06:53.945Z,97848.06
2023-03-08T05:09:26.046Z,97831.06
2023-03-08T05:11:56.280Z,97845.38
2023-03-08T05:14:24.238Z,97839.16
2023-03-08T05:16:52.236Z,97845.59
2023-03-08T05:19:20.242Z,97843.75
2023-03-08T05:21:52.255Z,97848.28
2023-03-08T05:24:21.251Z,97848.28
2023-03-08T05:26:49.903Z,97783.31
2023-03-08T05:29:20.827Z,97846.22
2023-03-08T05:31:51.059Z,97862.38
2023-03-08T05:34:19.746Z,97863.38
2023-03-08T05:36:48.970Z,97875.00
2023-03-08T05:39:17.030Z,97867.75
2023-03-08T05:41:55.454Z,97861.53
2023-03-08T05:44:30.583Z,97869.19
2023-03-08T05:47:00.654Z,97877.28
2023-03-08T05:49:29.487Z,97884.53
2023-03-08T05:51:58.253Z,97890.13
2023-03-08T05:54:28.005Z,97886.41
2023-03-08T05:57:00.283Z,97887.22
2023-03-08T05:59:30.941Z,97885.19
2023-03-08T06:02:02.793Z,97884.53
2023-03-08T06:04:44.594Z,97893.66
2023-03-08T06:07:14.739Z,97893.66
2023-03-08T06:09:48.333Z,97895.53
2023-03-08T06:12:18.915Z,97903.78
2023-03-08T06:14:52.579Z,97897.59
2023-03-08T06:17:23.181Z,97894.91
2023-03-08T06:19:52.861Z,97904.00
2023-03-08T06:22:20.802Z,97910.41
2023-03-08T06:24:49.986Z,97916.44
2023-03-08T06:27:24.608Z,97923.69
2023-03-08T06:29:56.597Z,97917.25
2023-03-08T06:32:25.052Z,97915.38
2023-03-08T06:34:53.446Z,97910.84
2023-03-08T06:37:21.543Z,97928.03
2023-03-08T06:39:49.752Z,97930.72
2023-03-08T06:42:19.868Z,97928.84
2023-03-08T06:44:50.572Z,97940.69
2023-03-08T06:47:20.094Z,97933.22
2023-03-08T06:49:48.218Z,97945.84
2023-03-08T06:52:16.410Z,97960.34
2023-03-08T06:54:44.427Z,97949.56
2023-03-08T06:57:13.207Z,97962.00
2023-03-08T06:59:41.203Z,97959.31
2023-03-08T07:02:10.724Z,97936.94
2023-03-08T07:04:40.334Z,97967.63
2023-03-08T07:07:09.117Z,97969.25
2023-03-08T07:09:37.391Z,97974.63
2023-03-08T07:12:08.108Z,97980.03
2023-03-08T07:14:36.231Z,97970.31
2023-03-08T07:17:04.157Z,97977.56
2023-03-08T07:19:32.977Z,98001.78
2023-03-08T07:22:02.386Z,97982.09
2023-03-08T07:24:30.514Z,97983.13
2023-03-08T07:26:58.444Z,97991.00
2023-03-08T07:29:26.333Z,97992.03
2023-03-08T07:31:54.293Z,97994.72
2023-03-08T07:34:22.338Z,98007.38
2023-03-08T07:36:51.074Z,98009.25
2023-03-08T07:39:20.493Z,98012.97
2023-03-08T07:41:48.467Z,98017.50
2023-03-08T07:44:16.578Z,98011.28
2023-03-08T07:46:44.579Z,98022.06
2023-03-08T07:49:12.597Z,98024.75
2023-03-08T07:51:40.494Z,98030.38
2023-03-08T07:54:10.384Z,98032.22
2023-03-08T07:56:39.762Z,98035.75
2023-03-08T07:59:07.775Z,98037.59
2023-03-08T08:01:35.778Z,98044.44
2023-03-08T08:04:03.838Z,98043.38
2023-03-08T08:06:32.047Z,98055.41
2023-03-08T08:08:59.991Z,98059.97
2023-03-08T08:11:27.989Z,98058.75
2023-03-08T08:13:57.295Z,98059.97
2023-03-08T08:16:25.864Z,98056.06
2023-03-08T08:18:54.633Z,98061.22
2023-03-08T08:21:23.348Z,98064.34
2023-03-08T08:23:51.704Z,98080.50
2023-03-08T08:26:21.550Z,98077.44
2023-03-08T08:28:52.003Z,98078.28
2023-03-08T08:31:23.355Z,98086.34
2023-03-08T08:33:51.489Z,98075.72
2023-03-08T08:36:21.511Z,98089.88
2023-03-08T08:38:49.635Z,98100.44
2023-03-08T08:41:19.420Z,98097.34
2023-03-08T08:43:48.630Z,98104.59
2023-03-08T08:46:18.581Z,98105.03
2023-03-08T08:48:47.927Z,98110.19
2023-03-08T08:51:16.212Z,98110.81
2023-03-08T08:53:45.184Z,98115.56
2023-03-08T08:56:26.242Z,98126.97
2023-03-08T08:58:56.073Z,98130.72
2023-03-08T09:01:25.812Z,98132.38
2023-03-08T09:03:55.377Z,98139.81
2023-03-08T09:06:25.572Z,98147.50
2023-03-08T09:08:55.815Z,98154.13
2023-03-08T09:11:24.385Z,98154.78
2023-03-08T09:13:53.184Z,98158.72
2023-03-08T09:16:22.778Z,98159.34
2023-03-08T09:18:51.830Z,98170.75
2023-03-08T09:21:21.420Z,98162.06
2023-03-08T09:23:49.845Z,98176.16
2023-03-08T09:26:17.899Z,98177.81
2023-03-08T09:28:46.074Z,98176.78
2023-03-08T09:31:17.770Z,98172.84
2023-03-08T09:33:48.373Z,98164.72
2023-03-08T09:36:16.850Z,98193.16
2023-03-08T09:38:48.795Z,98164.31
2023-03-08T09:41:49.498Z,98194.63
2023-03-08T09:44:53.166Z,98193.59
2023-03-08T09:47:34.231Z,98190.91
2023-03-08T09:50:10.113Z,98202.28
2023-03-08T09:52:41.913Z,98203.97
2023-03-08T09:55:19.793Z,98209.97
2023-03-08T09:57:53.446Z,98214.13
2023-03-08T10:00:24.493Z,98213.09
2023-03-08T10:03:05.250Z,98191.69
2023-03-08T10:05:41.527Z,98230.72
2023-03-08T10:08:17.916Z,98228.22
2023-03-08T10:10:54.964Z,98234.84
2023-03-08T10:13:34.274Z,98240.47
2023-03-08T10:16:12.110Z,98239.00
2023-03-08T10:18:45.710Z,98249.97
2023-03-08T10:21:18.299Z,98216.75
2023-03-08T10:23:48.768Z,98233.75
2023-03-08T10:26:18.856Z,98268.84
2023-03-08T10:28:46.838Z,98269.06
2023-03-08T10:31:21.396Z,98270.72
2023-03-08T10:33:53.138Z,98273.44
2023-03-08T10:36:23.080Z,98283.16
2023-03-08T10:39:00.248Z,98282.13
2023-03-08T10:41:32.909Z,98281.50
2023-03-08T10:44:01.616Z,98283.38
2023-03-08T10:46:33.010Z,98286.91
2023-03-08T10:49:15.896Z,98286.91
2023-03-08T10:51:53.754Z,98299.31
2023-03-08T10:54:21.810Z,98293.75
2023-03-08T10:56:57.994Z,98300.78
2023-03-08T10:59:32.548Z,98288.53
2023-03-08T11:02:03.007Z,98299.50
2023-03-08T11:04:32.077Z,98307.81
2023-03-08T11:07:10.546Z,98319.00
2023-03-08T11:09:38.711Z,98318.81
2023-03-08T11:12:23.860Z,98326.88
2023-03-08T11:14:52.833Z,98319.81
2023-03-08T11:17:27.945Z,98320.66
2023-03-08T11:20:11.175Z,98332.47
2023-03-08T11:22:56.124Z,98329.78
2023-03-08T11:25:36.258Z,98329.13
2023-03-08T11:28:26.744Z,98340.56
2023-03-08T11:31:03.225Z,98350.53
2023-03-08T11:33:46.109Z,98352.16
2023-03-08T11:36:22.280Z,98357.56
2023-03-08T11:38:58.942Z,98361.94
2023-03-08T11:41:37.674Z,98360.69
2023-03-08T11:44:22.117Z,98359.69
2023-03-08T11:47:04.813Z,98373.16
2023-03-08T11:49:52.547Z,98371.69
2023-03-08T11:52:33.882Z,98387.66
2023-03-08T11:55:31.521Z,98395.34
2023-03-08T11:58:05.107Z,98393.66
2023-03-08T12:00:37.807Z,98399.69
2023-03-08T12:03:12.726Z,98384.91
2023-03-08T12:05:45.459Z,98402.38
2023-03-08T12:08:18.743Z,98403.03
2023-03-08T12:10:52.224Z,98411.94
2023-03-08T12:13:26.223Z,98411.94
2023-03-08T12:16:00.192Z,98426.63
2023-03-08T12:18:36.826Z,98415.22
2023-03-08T12:21:19.384Z,98429.34
2023-03-08T12:23:56.350Z,98411.06
2023-03-08T12:26:27.912Z,98426.47
2023-03-08T12:29:01.588Z,98441.00
2023-03-08T12:31:35.616Z,98402.53
2023-03-08T12:34:14.079Z,98435.00
2023-03-08T12:36:44.414Z,98438.16
2023-03-08T12:39:30.571Z,98420.00
2023-03-08T12:42:01.314Z,98453.50
2023-03-08T12:44:31.177Z,98446.03
2023-03-08T12:47:04.613Z,98460.34
2023-03-08T12:49:36.205Z,98464.91
2023-03-08T12:52:07.257Z,98443.69
2023-03-08T12:54:36.786Z,98466.41
2023-03-08T12:57:16.668Z,98472.22
2023-03-08T12:59:45.985Z,98468.50
2023-03-08T13:02:27.163Z,98480.56
2023-03-08T13:05:19.172Z,98483.25
2023-03-08T13:08:18.482Z,98470.59
2023-03-08T13:11:00.198Z,98473.03
2023-03-08T13:13:44.767Z,98491.75
2023-03-08T13:16:31.639Z,98479.72
2023-03-08T13:19:17.893Z,98499.22
2023-03-08T13:21:51.472Z,98490.50
2023-03-08T13:24:28.722Z,98484.78
2023-03-08T13:27:16.118Z,98513.31
2023-03-08T13:29:45.922Z,98512.88
2023-03-08T13:32:16.878Z,98519.09
2023-03-08T13:34:52.223Z,98520.31
2023-03-08T13:37:25.132Z,98526.91
2023-03-08T13:39:55.131Z,98536.84
2023-03-08T13:42:24.872Z,98532.53
2023-03-08T13:44:53.357Z,98544.94
2023-03-08T13:47:24.766Z,98544.13
2023-03-08T13:49:56.588Z,98550.34
2023-03-08T13:52:30.086Z,98555.75
2023-03-08T13:55:01.191Z,98554.91
2023-03-08T13:57:31.574Z,98558.25
2023-03-08T14:00:04.319Z,98560.94
2023-03-08T14:02:33.890Z,98556.38
2023-03-08T14:05:03.594Z,98564.09
2023-03-08T14:07:33.101Z,98561.41
2023-03-08T14:10:01.213Z,98541.19
2023-03-08T14:12:32.632Z,98558.31
2023-03-08T14:15:03.647Z,98560.94
2023-03-08T14:17:36.161Z,98568.91
2023-03-08T14:20:18.131Z,98578.88
2023-03-08T14:22:49.098Z,98580.72
2023-03-08T14:25:24.713Z,98579.72
2023-03-08T14:27:53.069Z,98582.41
2023-03-08T14:30:23.267Z,98589.66
2023-03-08T14:33:03.770Z,98594.84
2023-03-08T14:35:36.870Z,98597.38
2023-03-08T14:38:13.578Z,98602.75
2023-03-08T14:40:49.840Z,98606.72
2023-03-08T14:43:20.105Z,98608.19
2023-03-08T14:45:54.335Z,98616.72
2023-03-08T14:48:26.012Z,98611.13
2023-03-08T14:50:58.287Z,98610.28
2023-03-08T14:53:32.753Z,98610.50
2023-03-08T14:56:02.407Z,98623.97
2023-03-08T14:58:32.251Z,98616.91
2023-03-08T15:01:02.211Z,98613.78
2023-03-08T15:03:31.864Z,98630.38
2023-03-08T15:06:06.443Z,98630.22
2023-03-08T15:08:34.420Z,98633.28
2023-03-08T15:11:02.315Z,98640.75
2023-03-08T15:13:30.436Z,98631.59
2023-03-08T15:15:58.356Z,98645.94
2023-03-08T15:18:26.456Z,98653.00
2023-03-08T15:20:54.505Z,98652.34
2023-03-08T15:23:25.936Z,98658.59
2023-03-08T15:25:54.507Z,98648.19
2023-03-08T15:28:23.820Z,98656.28
2023-03-08T15:30:54.595Z,98656.28
2023-03-08T15:33:23.761Z,98656.09
2023-03-08T15:35:52.329Z,98659.19
2023-03-08T15:38:22.762Z,98635.41
2023-03-08T15:40:52.057Z,98670.66
2023-03-08T15:43:19.952Z,98670.84
2023-03-08T15:45:47.915Z,98674.19
2023-03-08T15:48:17.683Z,98678.56
2023-03-08T15:50:46.033Z,98656.63
2023-03-08T15:53:20.602Z,98687.66
2023-03-08T15:55:58.773Z,98698.91
2023-03-08T15:58:26.817Z,98697.88
2023-03-08T16:00:55.251Z,98706.81
2023-03-08T16:03:26.034Z,98710.31
2023-03-08T16:05:54.160Z,98716.78
2023-03-08T16:08:25.033Z,98714.47
2023-03-08T16:10:53.319Z,98727.31
2023-03-08T16:13:23.030Z,98726.66
2023-03-08T16:15:51.033Z,98718.31
2023-03-08T16:18:18.964Z,98737.00
2023-03-08T16:20:47.117Z,98741.56
2023-03-08T16:23:15.109Z,98746.50
2023-03-08T16:25:43.355Z,98756.66
2023-03-08T16:28:11.860Z,98758.72
2023-03-08T16:30:42.757Z,98772.84
2023-03-08T16:33:10.724Z,98772.00
2023-03-08T16:35:38.778Z,98775.34
2023-03-08T16:38:06.822Z,98765.50
2023-03-08T16:40:35.316Z,98794.50
2023-03-08T16:43:03.222Z,98789.09
2023-03-08T16:45:31.170Z,98799.22
2023-03-08T16:48:00.485Z,98803.97
2023-03-08T16:50:28.503Z,98812.06
2023-03-08T16:52:57.056Z,98818.69
2023-03-08T16:55:25.261Z,98819.72
2023-03-08T16:57:53.445Z,98828.63
2023-03-08T17:00:22.331Z,98836.72
2023-03-08T17:02:50.276Z,98816.19
2023-03-08T17:05:19.827Z,98844.81
2023-03-08T17:07:48.181Z,98845.19
2023-03-08T17:10:16.060Z,98834.91
2023-03-08T17:12:43.971Z,98851.50
2023-03-08T17:15:12.924Z,98857.94
2023-03-08T17:17:41.725Z,98855.81
2023-03-08T17:20:11.031Z,98865.09
2023-03-08T17:22:40.436Z,98867.63
2023-03-08T17:25:09.492Z,98881.09
2023-03-08T17:27:37.489Z,98876.56
2023-03-08T17:30:06.326Z,98880.09
2023-03-08T17:32:34.245Z,98885.00
2023-03-08T17:35:02.298Z,98890.56
2023-03-08T17:37:30.191Z,98890.97
2023-03-08T17:39:59.909Z,98886.97
2023-03-08T17:42:27.814Z,98888.81
2023-03-08T17:44:55.698Z,98890.25
2023-03-08T17:47:23.633Z,98896.00
2023-03-08T17:49:51.531Z,98907.63
2023-03-08T17:52:19.432Z,98901.59
2023-03-08T17:54:49.176Z,98902.59
2023-03-08T17:57:21.783Z,98913.59
2023-03-08T17:59:50.436Z,98918.50
2023-03-08T18:02:18.934Z,98913.41
2023-03-08T18:04:48.192Z,98923.97
2023-03-08T18:07:17.691Z,98925.66
2023-03-08T18:09:46.578Z,98936.59
2023-03-08T18:12:14.804Z,98934.28
2023-03-08T18:14:45.369Z,98940.50
2023-03-08T18:17:13.417Z,98943.56
2023-03-08T18:19:42.944Z,98943.78
2023-03-08T18:22:11.057Z,98939.59
2023-03-08T18:24:39.116Z,98951.38
2023-03-08T18:27:07.667Z,98951.56
2023-03-08T18:29:37.052Z,98958.16
2023-03-08T18:32:06.866Z,98965.41
2023-03-08T18:34:35.255Z,98965.59
2023-03-08T18:37:03.255Z,98967.63
2023-03-08T18:39:31.382Z,98975.06
2023-03-08T18:42:01.216Z,98977.75
2023-03-08T18:44:29.381Z,98979.78
2023-03-08T18:46:57.421Z,98981.63
2023-03-08T18:49:27.181Z,98988.03
2023-03-08T18:51:55.168Z,98985.50
2023-03-08T18:54:23.158Z,98989.22
2023-03-08T18:56:53.728Z,98992.94
2023-03-08T18:59:22.165Z,98992.09
2023-03-08T19:01:51.028Z,98997.69
2023-03-08T19:04:19.377Z,98990.38
2023-03-08T19:06:48.827Z,99005.28
2023-03-08T19:09:18.261Z,99015.22
2023-03-08T19:11:47.949Z,99022.63
2023-03-08T19:14:17.313Z,99027.03
2023-03-08T19:16:45.382Z,99018.25
2023-03-08T19:19:15.286Z,99018.25
2023-03-08T19:21:45.132Z,99030.06
2023-03-08T19:24:16.078Z,99029.03
2023-03-08T19:26:47.520Z,99035.44
2023-03-08T19:29:17.889Z,99031.06
2023-03-08T19:31:47.604Z,99042.69
2023-03-08T19:34:16.412Z,99017.72
2023-03-08T19:36:45.657Z,99019.97
2023-03-08T19:39:16.800Z,99051.13
2023-03-08T19:41:45.674Z,99048.44
2023-03-08T19:44:13.571Z,99055.66
2023-03-08T19:46:41.541Z,99055.66
2023-03-08T19:49:12.729Z,99058.34
2023-03-08T19:51:41.160Z,99061.06
2023-03-08T19:54:09.507Z,99045.00
2023-03-08T19:56:38.722Z,99071.19
2023-03-08T19:59:07.658Z,99076.56
2023-03-08T20:01:36.592Z,99085.47
2023-03-08T20:04:04.957Z,99084.63
2023-03-08T20:06:35.081Z,99080.94
2023-03-08T20:09:05.123Z,99089.19
2023-03-08T20:11:33.989Z,99080.25
2023-03-08T20:14:03.538Z,99079.31
2023-03-08T20:16:31.985Z,99086.97
2023-03-08T20:19:00.020Z,99096.84
2023-03-08T20:21:29.771Z,99089.06
2023-03-08T20:23:59.597Z,99096.28
2023-03-08T20:26:29.251Z,99100.78
2023-03-08T20:28:57.565Z,99101.91
2023-03-08T20:31:28.949Z,99109.94
2023-03-08T20:33:57.333Z,99110.78
2023-03-08T20:36:25.719Z,99112.25
2023-03-08T20:38:55.176Z,99096.44
2023-03-08T20:41:23.762Z,99108.47
2023-03-08T20:43:55.360Z,99106.44
2023-03-08T20:46:25.212Z,99101.72
2023-03-08T20:48:55.152Z,99115.00
2023-03-08T20:51:24.347Z,99073.59
2023-03-08T20:53:54.095Z,99117.03
2023-03-08T20:56:24.530Z,99118.03
2023-03-08T20:58:54.560Z,99121.41
2023-03-08T21:01:24.968Z,99116.84
2023-03-08T21:03:54.333Z,99118.53
2023-03-08T21:06:24.353Z,99116.47
2023-03-08T21:08:52.741Z,99125.59
2023-03-08T21:11:21.022Z,99123.56
2023-03-08T21:13:50.278Z,99128.13
2023-03-08T21:16:20.586Z,99108.66
2023-03-08T21:18:50.384Z,99127.94
2023-03-08T21:21:21.678Z,99124.41
2023-03-08T21:23:51.266Z,99132.66
2023-03-08T21:26:20.699Z,99134.53
2023-03-08T21:28:49.123Z,99136.41
2023-03-08T21:31:17.639Z,99126.97
2023-03-08T21:33:45.727Z,99136.41
2023-03-08T21:36:13.745Z,99132.00
2023-03-08T21:38:43.473Z,99141.78
2023-03-08T21:41:17.946Z,99104.53
2023-03-08T21:43:46.022Z,99139.59
2023-03-08T21:46:14.024Z,99145.50
2023-03-08T21:48:42.081Z,99149.19
2023-03-08T21:51:10.238Z,99142.13
2023-03-08T21:53:39.309Z,99149.88
2023-03-08T21:56:10.159Z,99142.44
2023-03-08T21:58:38.837Z,99075.91
2023-03-08T22:01:07.977Z,99144.47
2023-03-08T22:03:35.935Z,99142.78
2023-03-08T22:06:03.951Z,99158.97
2023-03-08T22:08:31.885Z,99154.59
2023-03-08T22:10:59.737Z,99155.63
2023-03-08T22:13:29.104Z,99161.84
2023-03-08T22:15:57.020Z,99161.84
2023-03-08T22:18:25.789Z,99159.97
2023-03-08T22:20:55.059Z,99163.50
2023-03-08T22:23:23.149Z,99166.41
2023-03-08T22:25:51.120Z,99167.41
2023-03-08T22:28:19.268Z,99171.16
2023-03-08T22:30:48.773Z,99171.97
2023-03-08T22:33:17.091Z,99177.34
2023-03-08T22:35:46.726Z,99167.66
2023-03-08T22:38:15.107Z,99174.66
2023-03-08T22:40:43.704Z,99167.41
2023-03-08T22:43:12.477Z,99181.09
2023-03-08T22:45:40.514Z,99142.53
2023-03-08T22:48:09.895Z,99182.94
2023-03-08T22:50:37.926Z,99178.94
2023-03-08T22:53:05.903Z,99187.66
2023-03-08T22:55:34.273Z,99148.25
2023-03-08T22:58:02.205Z,99193.22
2023-03-08T23:00:30.203Z,99198.81
2023-03-08T23:02:58.484Z,99198.81
2023-03-08T23:05:27.913Z,99203.34
2023-03-08T23:07:55.905Z,99194.44
2023-03-08T23:10:23.945Z,99200.00
2023-03-08T23:12:51.972Z,99200.38
2023-03-08T23:15:20.096Z,99194.66
2023-03-08T23:17:48.082Z,99202.25
2023-03-08T23:20:19.848Z,99204.50
2023-03-08T23:22:49.708Z,99206.03
2023-03-08T23:25:18.725Z,99208.94
2023-03-08T23:27:46.596Z,99213.97
2023-03-08T23:30:18.146Z,99221.38
2023-03-08T23:32:46.208Z,99214.34
2023-03-08T23:35:14.386Z,99209.28
2023-03-08T23:37:42.480Z,99218.56
2023-03-08T23:40:14.121Z,99218.72
2023-03-08T23:42:42.412Z,99214.53
2023-03-08T23:45:11.930Z,99212.19
2023-03-08T23:47:39.862Z,99221.31
2023-03-08T23:50:09.183Z,99214.22
2023-03-08T23:52:37.155Z,99216.91
2023-03-08T23:55:05.532Z,99218.09
2023-03-08T23:57:34.945Z,99212.91
